createdAt,value
2023-02-18T00:00:21.423Z,0.77
2023-02-18T00:02:48.038Z,0.70
2023-02-18T00:05:15.428Z,1.10
2023-02-18T00:07:42.272Z,0.97
2023-02-18T00:10:13.240Z,0.43
2023-02-18T00:12:40.420Z,0.60
2023-02-18T00:15:08.104Z,0.97
2023-02-18T00:17:35.222Z,0.57
2023-02-18T00:20:01.943Z,1.27
2023-02-18T00:22:28.865Z,0.60
2023-02-18T00:24:55.432Z,1.03
2023-02-18T00:27:22.001Z,1.10
2023-02-18T00:29:48.574Z,1.30
2023-02-18T00:32:15.232Z,0.80
2023-02-18T00:34:41.976Z,1.07
2023-02-18T00:37:08.527Z,0.60
2023-02-18T00:39:35.081Z,1.30
2023-02-18T00:42:01.686Z,0.53
2023-02-18T00:44:28.230Z,0.90
2023-02-18T00:46:54.885Z,0.60
2023-02-18T00:49:21.419Z,1.00
2023-02-18T00:51:48.255Z,0.70
2023-02-18T00:54:14.818Z,1.20
2023-02-18T00:56:41.378Z,0.40
2023-02-18T00:59:07.989Z,0.43
2023-02-18T01:01:35.171Z,0.90
2023-02-18T01:04:01.808Z,0.80
2023-02-18T01:06:28.463Z,0.60
2023-02-18T01:08:55.029Z,0.50
2023-02-18T01:11:21.603Z,0.70
2023-02-18T01:13:48.498Z,0.50
2023-02-18T01:16:15.169Z,0.57
2023-02-18T01:18:41.897Z,0.30
2023-02-18T01:21:09.691Z,1.50
2023-02-18T01:23:41.070Z,1.07
2023-02-18T01:26:08.812Z,1.00
2023-02-18T01:28:35.726Z,1.07
2023-02-18T01:31:08.243Z,1.20
2023-02-18T01:33:35.534Z,0.83
2023-02-18T01:36:02.358Z,0.47
2023-02-18T01:38:28.992Z,0.93
2023-02-18T01:40:55.611Z,0.30
2023-02-18T01:43:22.926Z,0.60
2023-02-18T01:46:19.975Z,1.07
2023-02-18T01:48:49.857Z,0.30
2023-02-18T01:51:48.213Z,0.67
2023-02-18T01:54:30.592Z,0.87
2023-02-18T01:57:01.671Z,0.60
2023-02-18T01:59:38.098Z,0.70
2023-02-18T02:02:08.516Z,0.83
2023-02-18T02:04:35.338Z,0.67
2023-02-18T02:07:02.188Z,0.50
2023-02-18T02:09:30.480Z,0.80
2023-02-18T02:12:36.835Z,0.90
2023-02-18T02:15:32.492Z,0.33
2023-02-18T02:18:17.673Z,0.77
2023-02-18T02:21:05.849Z,0.50
2023-02-18T02:23:57.618Z,0.70
2023-02-18T02:26:24.174Z,0.70
2023-02-18T02:29:20.664Z,0.57
2023-02-18T02:31:53.635Z,0.67
2023-02-18T02:34:45.191Z,0.30
2023-02-18T02:37:33.463Z,1.73
2023-02-18T02:40:15.682Z,0.70
2023-02-18T02:42:57.442Z,0.90
2023-02-18T02:45:58.148Z,0.50
2023-02-18T02:48:30.828Z,0.60
2023-02-18T02:51:15.448Z,0.63
2023-02-18T02:53:43.202Z,0.50
2023-02-18T02:56:22.564Z,1.10
2023-02-18T02:59:11.838Z,1.07
2023-02-18T03:01:41.391Z,0.87
2023-02-18T03:04:41.236Z,0.60
2023-02-18T03:07:23.351Z,0.83
2023-02-18T03:10:15.021Z,0.90
2023-02-18T03:12:41.772Z,0.97
2023-02-18T03:15:13.499Z,0.70
2023-02-18T03:18:01.132Z,0.83
2023-02-18T03:20:43.234Z,0.60
2023-02-18T03:23:16.155Z,0.83
2023-02-18T03:25:43.694Z,0.70
2023-02-18T03:28:20.092Z,1.03
2023-02-18T03:30:52.853Z,1.13
2023-02-18T03:33:26.958Z,0.87
2023-02-18T03:35:55.961Z,0.70
2023-02-18T03:38:39.071Z,0.90
2023-02-18T03:41:06.404Z,0.93
2023-02-18T03:43:33.642Z,0.90
2023-02-18T03:46:00.992Z,1.07
2023-02-18T03:48:27.787Z,0.73
2023-02-18T03:50:54.391Z,0.80
2023-02-18T03:53:20.924Z,0.83
2023-02-18T03:55:47.656Z,0.87
2023-02-18T03:58:14.220Z,0.80
2023-02-18T04:00:40.796Z,1.00
2023-02-18T04:03:07.571Z,0.53
2023-02-18T04:05:34.132Z,0.40
2023-02-18T04:08:00.675Z,0.60
2023-02-18T04:10:27.241Z,1.43
2023-02-18T04:12:53.955Z,1.43
2023-02-18T04:15:20.596Z,1.27
2023-02-18T04:17:47.221Z,0.90
2023-02-18T04:20:14.050Z,0.90
2023-02-18T04:22:40.755Z,0.77
2023-02-18T04:25:07.768Z,0.90
2023-02-18T04:27:34.345Z,1.30
2023-02-18T04:30:01.087Z,1.13
2023-02-18T04:32:27.714Z,0.60
2023-02-18T04:34:54.284Z,1.10
2023-02-18T04:37:20.847Z,0.80
2023-02-18T04:39:47.421Z,0.80
2023-02-18T04:42:14.192Z,0.97
2023-02-18T04:44:40.760Z,0.47
2023-02-18T04:47:07.416Z,1.27
2023-02-18T04:49:34.555Z,2.07
2023-02-18T04:52:01.200Z,1.70
2023-02-18T04:54:27.756Z,1.57
2023-02-18T04:56:54.404Z,1.37
2023-02-18T04:59:21.014Z,1.10
2023-02-18T05:01:47.638Z,1.13
2023-02-18T05:04:14.267Z,0.70
2023-02-18T05:06:42.927Z,1.83
2023-02-18T05:09:10.771Z,0.80
2023-02-18T05:11:37.487Z,1.43
2023-02-18T05:14:04.091Z,1.00
2023-02-18T05:16:30.754Z,1.40
2023-02-18T05:18:57.547Z,1.77
2023-02-18T05:21:24.114Z,1.60
2023-02-18T05:23:50.691Z,2.13
2023-02-18T05:26:17.701Z,2.20
2023-02-18T05:28:44.290Z,1.87
2023-02-18T05:31:10.995Z,2.17
2023-02-18T05:33:37.641Z,2.10
2023-02-18T05:36:04.564Z,1.87
2023-02-18T05:38:31.139Z,1.57
2023-02-18T05:40:57.735Z,2.53
2023-02-18T05:43:24.318Z,2.40
2023-02-18T05:45:50.934Z,1.83
2023-02-18T05:48:17.555Z,2.03
2023-02-18T05:50:44.171Z,2.50
2023-02-18T05:53:10.764Z,2.17
2023-02-18T05:55:39.100Z,1.67
2023-02-18T05:58:06.528Z,1.97
2023-02-18T06:00:33.187Z,1.83
2023-02-18T06:02:59.873Z,2.13
2023-02-18T06:05:26.805Z,2.57
2023-02-18T06:07:55.264Z,2.43
2023-02-18T06:10:23.190Z,2.43
2023-02-18T06:12:50.203Z,2.40
2023-02-18T06:15:16.861Z,1.97
2023-02-18T06:17:43.643Z,2.40
2023-02-18T06:20:10.737Z,2.33
2023-02-18T06:22:37.307Z,2.43
2023-02-18T06:25:04.024Z,2.97
2023-02-18T06:27:30.642Z,2.50
2023-02-18T06:29:57.241Z,2.40
2023-02-18T06:32:24.109Z,2.50
2023-02-18T06:34:50.784Z,2.63
2023-02-18T06:37:17.339Z,3.07
2023-02-18T06:39:43.904Z,3.50
2023-02-18T06:42:10.451Z,2.40
2023-02-18T06:44:38.118Z,2.83
2023-02-18T06:47:04.816Z,3.07
2023-02-18T06:49:31.553Z,2.93
2023-02-18T06:51:58.147Z,2.67
2023-02-18T06:54:25.238Z,2.90
2023-02-18T06:56:52.132Z,3.40
2023-02-18T06:59:18.704Z,3.63
2023-02-18T07:01:45.255Z,3.80
2023-02-18T07:04:11.912Z,3.33
2023-02-18T07:06:38.518Z,3.00
2023-02-18T07:09:05.802Z,4.43
2023-02-18T07:11:32.759Z,4.17
2023-02-18T07:13:59.298Z,3.83
2023-02-18T07:16:25.947Z,5.00
2023-02-18T07:18:52.526Z,4.57
2023-02-18T07:21:19.357Z,4.27
2023-02-18T07:23:45.915Z,4.80
2023-02-18T07:26:14.212Z,4.67
2023-02-18T07:28:41.575Z,5.10
2023-02-18T07:31:09.102Z,4.67
2023-02-18T07:33:35.793Z,4.57
2023-02-18T07:36:03.352Z,5.50
2023-02-18T07:38:30.256Z,5.27
2023-02-18T07:40:57.601Z,5.93
2023-02-18T07:43:24.732Z,6.10
2023-02-18T07:45:51.386Z,5.03
2023-02-18T07:48:17.991Z,5.72
2023-02-18T07:50:46.250Z,4.87
2023-02-18T07:53:14.737Z,4.50
2023-02-18T07:55:50.479Z,4.73
2023-02-18T07:58:26.218Z,4.00
2023-02-18T08:00:55.664Z,3.57
2023-02-18T08:03:24.386Z,3.53
2023-02-18T08:05:51.671Z,2.90
2023-02-18T08:08:21.797Z,2.87
2023-02-18T08:10:50.806Z,2.63
2023-02-18T08:13:17.500Z,2.43
2023-02-18T08:15:44.061Z,2.77
2023-02-18T08:18:21.267Z,2.30
2023-02-18T08:20:48.838Z,2.10
2023-02-18T08:23:16.453Z,2.20
2023-02-18T08:25:49.792Z,1.63
2023-02-18T08:28:18.002Z,1.60
2023-02-18T08:30:46.687Z,1.97
2023-02-18T08:33:13.896Z,1.60
2023-02-18T08:35:40.716Z,1.67
2023-02-18T08:38:07.258Z,1.60
2023-02-18T08:40:34.083Z,1.53
2023-02-18T08:43:00.631Z,1.33
2023-02-18T08:45:27.258Z,1.60
2023-02-18T08:48:17.071Z,1.57
2023-02-18T08:50:40.822Z,1.17
2023-02-18T08:53:07.615Z,1.10
2023-02-18T08:55:35.033Z,1.23
2023-02-18T08:58:01.691Z,1.33
2023-02-18T09:00:28.780Z,1.40
2023-02-18T09:02:55.383Z,1.33
2023-02-18T09:05:21.966Z,1.40
2023-02-18T09:07:48.520Z,1.27
2023-02-18T09:10:15.073Z,1.33
2023-02-18T09:12:41.638Z,1.40
2023-02-18T09:15:08.581Z,1.40
2023-02-18T09:17:35.281Z,1.33
2023-02-18T09:20:02.121Z,1.40
2023-02-18T09:22:28.718Z,1.60
2023-02-18T09:24:55.287Z,1.80
2023-02-18T09:27:22.246Z,1.53
2023-02-18T09:29:49.728Z,1.50
2023-02-18T09:32:28.834Z,1.63
2023-02-18T09:35:00.605Z,1.73
2023-02-18T09:37:27.414Z,2.07
2023-02-18T09:39:54.090Z,1.87
2023-02-18T09:42:28.514Z,1.90
2023-02-18T09:45:00.469Z,2.30
2023-02-18T09:47:37.289Z,2.17
2023-02-18T09:50:13.320Z,2.60
2023-02-18T09:52:40.412Z,2.00
2023-02-18T09:55:18.951Z,2.93
2023-02-18T09:57:49.203Z,2.57
2023-02-18T10:00:32.826Z,2.37
2023-02-18T10:03:07.746Z,2.70
2023-02-18T10:05:36.659Z,2.70
2023-02-18T10:08:06.961Z,2.90
2023-02-18T10:10:42.134Z,3.10
2023-02-18T10:13:35.056Z,3.17
2023-02-18T10:16:03.275Z,3.17
2023-02-18T10:18:34.066Z,3.03
2023-02-18T10:21:24.024Z,2.80
2023-02-18T10:24:04.650Z,2.57
2023-02-18T10:26:34.423Z,2.47
2023-02-18T10:29:01.500Z,2.30
2023-02-18T10:31:37.557Z,2.47
2023-02-18T10:34:17.616Z,2.20
2023-02-18T10:37:08.967Z,2.20
2023-02-18T10:39:44.462Z,2.17
2023-02-18T10:42:22.972Z,2.30
2023-02-18T10:45:08.401Z,1.30
2023-02-18T10:47:50.288Z,1.60
2023-02-18T10:50:39.437Z,2.00
2023-02-18T10:53:21.050Z,1.57
2023-02-18T10:55:54.335Z,1.40
2023-02-18T10:58:28.460Z,1.00
2023-02-18T11:00:55.224Z,1.30
2023-02-18T11:03:27.284Z,1.23
2023-02-18T11:05:56.444Z,1.50
2023-02-18T11:08:29.718Z,1.00
2023-02-18T11:10:57.120Z,1.20
2023-02-18T11:13:28.125Z,1.20
2023-02-18T11:16:09.334Z,1.07
2023-02-18T11:18:40.386Z,0.87
2023-02-18T11:21:37.398Z,0.80
2023-02-18T11:24:10.260Z,0.80
2023-02-18T11:26:39.621Z,1.10
2023-02-18T11:29:19.943Z,0.97
2023-02-18T11:31:49.614Z,0.87
2023-02-18T11:34:21.051Z,0.90
2023-02-18T11:36:49.050Z,1.13
2023-02-18T11:39:21.479Z,1.17
2023-02-18T11:41:57.609Z,0.90
2023-02-18T11:44:30.443Z,1.17
2023-02-18T11:47:13.415Z,1.40
2023-02-18T11:49:42.422Z,1.60
2023-02-18T11:52:25.544Z,1.07
2023-02-18T11:55:01.726Z,1.70
2023-02-18T11:57:29.102Z,1.40
2023-02-18T11:59:56.964Z,1.13
2023-02-18T12:02:38.023Z,1.70
2023-02-18T12:05:13.232Z,1.50
2023-02-18T12:07:47.466Z,1.30
2023-02-18T12:10:36.664Z,1.27
2023-02-18T12:13:23.899Z,1.90
2023-02-18T12:16:00.479Z,1.33
2023-02-18T12:18:43.176Z,1.50
2023-02-18T12:21:30.001Z,1.53
2023-02-18T12:24:10.051Z,1.30
2023-02-18T12:27:04.048Z,1.50
2023-02-18T12:29:56.586Z,1.90
2023-02-18T12:32:56.916Z,2.17
2023-02-18T12:35:40.811Z,1.37
2023-02-18T12:38:25.455Z,1.30
2023-02-18T12:41:00.951Z,1.40
2023-02-18T12:43:57.098Z,1.23
2023-02-18T12:46:48.485Z,1.50
2023-02-18T12:49:23.796Z,1.60
2023-02-18T12:52:13.744Z,1.33
2023-02-18T12:54:58.855Z,1.47
2023-02-18T12:57:34.185Z,1.73
2023-02-18T13:00:22.790Z,1.53
2023-02-18T13:03:24.506Z,1.10
2023-02-18T13:06:41.243Z,1.40
2023-02-18T13:09:29.921Z,1.50
2023-02-18T13:12:31.716Z,1.53
2023-02-18T13:15:16.908Z,1.57
2023-02-18T13:17:44.851Z,1.33
2023-02-18T13:20:26.248Z,0.97
2023-02-18T13:22:53.589Z,1.83
2023-02-18T13:25:21.050Z,1.00
2023-02-18T13:28:14.739Z,1.47
2023-02-18T13:31:04.279Z,1.10
2023-02-18T13:33:36.763Z,1.27
2023-02-18T13:36:28.463Z,1.40
2023-02-18T13:39:08.246Z,1.03
2023-02-18T13:41:41.767Z,1.17
2023-02-18T13:44:28.616Z,1.20
2023-02-18T13:46:57.709Z,1.73
2023-02-18T13:49:31.500Z,1.57
2023-02-18T13:52:00.325Z,0.80
2023-02-18T13:54:45.240Z,1.33
2023-02-18T13:57:20.405Z,1.47
2023-02-18T13:59:58.961Z,1.00
2023-02-18T14:02:26.153Z,1.50
2023-02-18T14:05:09.456Z,0.80
2023-02-18T14:07:36.207Z,1.42
2023-02-18T14:10:06.047Z,0.87
2023-02-18T14:12:57.756Z,1.27
2023-02-18T14:15:24.681Z,1.07
2023-02-18T14:18:10.092Z,1.03
2023-02-18T14:20:39.726Z,1.03
2023-02-18T14:23:18.188Z,0.93
2023-02-18T14:25:55.145Z,0.53
2023-02-18T14:28:34.040Z,1.00
2023-02-18T14:31:16.768Z,1.00
2023-02-18T14:33:59.925Z,0.93
2023-02-18T14:36:53.899Z,1.30
2023-02-18T14:39:48.157Z,1.67
2023-02-18T14:42:39.316Z,0.90
2023-02-18T14:45:27.009Z,0.73
2023-02-18T14:48:02.445Z,0.60
2023-02-18T14:50:36.798Z,0.67
2023-02-18T14:53:07.923Z,0.83
2023-02-18T14:55:38.310Z,0.70
2023-02-18T14:58:23.621Z,1.00
2023-02-18T15:00:50.182Z,0.83
2023-02-18T15:03:20.367Z,1.50
2023-02-18T15:05:47.084Z,0.90
2023-02-18T15:08:22.637Z,0.77
2023-02-18T15:10:53.996Z,0.67
2023-02-18T15:13:23.296Z,0.90
2023-02-18T15:15:59.242Z,1.13
2023-02-18T15:18:36.403Z,1.17
2023-02-18T15:21:08.797Z,0.90
2023-02-18T15:23:38.361Z,0.70
2023-02-18T15:26:09.618Z,0.57
2023-02-18T15:28:42.757Z,0.77
2023-02-18T15:31:15.261Z,1.10
2023-02-18T15:33:48.029Z,0.63
2023-02-18T15:36:15.126Z,0.63
2023-02-18T15:38:42.870Z,0.70
2023-02-18T15:41:13.934Z,1.10
2023-02-18T15:43:51.814Z,0.97
2023-02-18T15:46:18.514Z,0.70
2023-02-18T15:48:47.249Z,1.03
2023-02-18T15:51:19.719Z,0.47
2023-02-18T15:53:50.137Z,0.70
2023-02-18T15:56:44.153Z,0.60
2023-02-18T15:59:19.046Z,0.60
2023-02-18T16:01:54.893Z,1.03
2023-02-18T16:04:23.645Z,0.80
2023-02-18T16:06:56.256Z,1.23
2023-02-18T16:09:26.603Z,0.83
2023-02-18T16:12:02.120Z,1.13
2023-02-18T16:14:43.904Z,0.57
2023-02-18T16:17:18.974Z,0.70
2023-02-18T16:20:05.213Z,0.60
2023-02-18T16:22:35.481Z,0.80
2023-02-18T16:25:17.389Z,0.97
2023-02-18T16:27:55.118Z,0.90
2023-02-18T16:30:27.706Z,0.93
2023-02-18T16:32:55.325Z,0.63
2023-02-18T16:35:23.160Z,0.90
2023-02-18T16:37:52.653Z,0.97
2023-02-18T16:40:30.310Z,0.70
2023-02-18T16:42:59.779Z,1.53
2023-02-18T16:45:37.780Z,1.03
2023-02-18T16:48:05.604Z,1.53
2023-02-18T16:50:33.847Z,0.83
2023-02-18T16:53:01.032Z,1.37
2023-02-18T16:55:29.760Z,0.63
2023-02-18T16:57:56.781Z,1.17
2023-02-18T17:00:24.022Z,0.93
2023-02-18T17:02:54.218Z,0.87
2023-02-18T17:05:26.963Z,0.80
2023-02-18T17:07:55.152Z,0.80
2023-02-18T17:10:21.829Z,0.80
2023-02-18T17:12:48.561Z,0.67
2023-02-18T17:15:24.710Z,0.90
2023-02-18T17:17:51.252Z,0.50
2023-02-18T17:20:18.356Z,0.53
2023-02-18T17:22:44.915Z,0.50
2023-02-18T17:25:21.465Z,0.57
2023-02-18T17:27:48.228Z,0.50
2023-02-18T17:30:16.498Z,0.70
2023-02-18T17:32:43.584Z,0.40
2023-02-18T17:35:22.798Z,0.80
2023-02-18T17:37:49.684Z,0.40
2023-02-18T17:40:20.079Z,0.80
2023-02-18T17:42:47.255Z,0.60
2023-02-18T17:45:41.988Z,0.97
2023-02-18T17:48:09.746Z,0.50
2023-02-18T17:50:36.324Z,1.17
2023-02-18T17:53:03.080Z,1.03
2023-02-18T17:55:32.332Z,0.60
2023-02-18T17:57:59.087Z,0.33
2023-02-18T18:00:29.671Z,0.93
2023-02-18T18:02:56.668Z,0.87
2023-02-18T18:05:27.114Z,0.70
2023-02-18T18:07:54.403Z,0.87
2023-02-18T18:10:25.242Z,0.80
2023-02-18T18:12:51.822Z,0.60
2023-02-18T18:15:26.878Z,0.90
2023-02-18T18:17:54.573Z,1.50
2023-02-18T18:20:23.191Z,0.87
2023-02-18T18:22:51.067Z,0.70
2023-02-18T18:25:21.357Z,1.20
2023-02-18T18:27:50.321Z,2.20
2023-02-18T18:30:17.275Z,1.13
2023-02-18T18:32:43.867Z,0.80
2023-02-18T18:35:22.419Z,1.17
2023-02-18T18:37:49.809Z,0.73
2023-02-18T18:40:17.311Z,1.87
2023-02-18T18:42:44.106Z,2.53
2023-02-18T18:45:24.667Z,2.10
2023-02-18T18:47:52.498Z,1.33
2023-02-18T18:50:20.620Z,1.80
2023-02-18T18:52:48.612Z,1.30
2023-02-18T18:55:22.404Z,1.43
2023-02-18T18:57:49.159Z,0.80
2023-02-18T19:00:17.333Z,0.80
2023-02-18T19:02:44.360Z,1.20
2023-02-18T19:05:30.568Z,1.17
2023-02-18T19:07:58.512Z,0.80
2023-02-18T19:10:31.504Z,1.27
2023-02-18T19:13:07.242Z,1.53
2023-02-18T19:15:35.204Z,1.03
2023-02-18T19:18:01.894Z,1.23
2023-02-18T19:20:35.922Z,1.07
2023-02-18T19:23:03.739Z,0.97
2023-02-18T19:25:30.900Z,1.13
2023-02-18T19:27:57.978Z,0.73
2023-02-18T19:30:28.338Z,1.47
2023-02-18T19:32:57.230Z,0.97
2023-02-18T19:35:25.451Z,0.97
2023-02-18T19:37:52.656Z,0.63
2023-02-18T19:40:22.255Z,0.90
2023-02-18T19:42:49.477Z,0.33
2023-02-18T19:45:16.988Z,1.27
2023-02-18T19:47:43.831Z,0.60
2023-02-18T19:50:14.953Z,0.60
2023-02-18T19:52:41.725Z,0.80
2023-02-18T19:55:09.444Z,0.90
2023-02-18T19:57:36.366Z,1.03
2023-02-18T20:00:08.832Z,0.97
2023-02-18T20:02:35.553Z,0.63
2023-02-18T20:05:02.540Z,0.80
2023-02-18T20:07:29.662Z,0.80
2023-02-18T20:09:56.282Z,0.80
2023-02-18T20:12:23.281Z,0.83
2023-02-18T20:14:50.998Z,1.27
2023-02-18T20:17:18.488Z,1.00
2023-02-18T20:19:45.417Z,0.47
2023-02-18T20:22:12.187Z,0.70
2023-02-18T20:24:42.384Z,1.00
2023-02-18T20:27:10.353Z,0.83
2023-02-18T20:29:37.257Z,1.10
2023-02-18T20:32:05.316Z,1.30
2023-02-18T20:34:32.855Z,0.80
2023-02-18T20:37:00.823Z,0.97
2023-02-18T20:39:27.802Z,1.27
2023-02-18T20:41:54.637Z,1.30
2023-02-18T20:44:21.870Z,0.93
2023-02-18T20:46:49.672Z,0.90
2023-02-18T20:49:19.005Z,0.90
2023-02-18T20:51:45.706Z,0.90
2023-02-18T20:54:15.784Z,1.00
2023-02-18T20:56:43.558Z,1.27
2023-02-18T20:59:16.573Z,1.47
2023-02-18T21:01:44.397Z,1.13
2023-02-18T21:04:12.933Z,1.10
2023-02-18T21:06:39.940Z,0.87
2023-02-18T21:09:07.517Z,1.33
2023-02-18T21:11:34.571Z,1.27
2023-02-18T21:14:01.557Z,1.17
2023-02-18T21:16:29.726Z,1.40
2023-02-18T21:18:56.386Z,1.13
2023-02-18T21:21:23.643Z,1.43
2023-02-18T21:23:51.225Z,1.20
2023-02-18T21:26:23.882Z,1.03
2023-02-18T21:28:54.973Z,1.40
2023-02-18T21:31:28.648Z,1.33
2023-02-18T21:33:55.493Z,1.70
2023-02-18T21:36:22.777Z,1.40
2023-02-18T21:38:54.219Z,1.50
2023-02-18T21:41:21.365Z,1.40
2023-02-18T21:43:48.602Z,1.73
2023-02-18T21:46:19.466Z,1.50
2023-02-18T21:49:04.504Z,1.50
2023-02-18T21:51:57.328Z,1.50
2023-02-18T21:54:29.960Z,2.80
2023-02-18T21:56:57.940Z,2.00
2023-02-18T21:59:29.517Z,1.73
2023-02-18T22:01:57.262Z,2.10
2023-02-18T22:04:23.926Z,2.13
2023-02-18T22:06:50.486Z,1.80
2023-02-18T22:09:17.091Z,1.50
2023-02-18T22:11:44.039Z,1.50
2023-02-18T22:14:13.405Z,2.00
2023-02-18T22:16:40.551Z,1.40
2023-02-18T22:19:07.610Z,1.13
2023-02-18T22:21:34.274Z,1.50
2023-02-18T22:24:00.981Z,1.87
2023-02-18T22:26:27.706Z,1.67
2023-02-18T22:28:57.232Z,1.70
2023-02-18T22:31:25.288Z,1.37
2023-02-18T22:33:53.408Z,1.50
2023-02-18T22:36:22.235Z,1.10
2023-02-18T22:38:49.444Z,1.27
2023-02-18T22:41:18.151Z,2.10
2023-02-18T22:43:45.155Z,1.50
2023-02-18T22:46:21.170Z,1.30
2023-02-18T22:48:48.001Z,1.23
2023-02-18T22:51:17.603Z,1.03
2023-02-18T22:53:44.984Z,1.17
2023-02-18T22:56:14.268Z,1.33
2023-02-18T22:58:42.234Z,0.90
2023-02-18T23:01:17.653Z,1.13
2023-02-18T23:03:44.269Z,0.97
2023-02-18T23:06:10.828Z,1.00
2023-02-18T23:08:37.363Z,0.93
2023-02-18T23:11:09.741Z,1.10
2023-02-18T23:13:37.171Z,1.10
2023-02-18T23:16:06.949Z,1.10
2023-02-18T23:18:35.542Z,1.60
2023-02-18T23:21:22.571Z,1.20
2023-02-18T23:23:52.400Z,1.13
2023-02-18T23:26:21.250Z,1.13
2023-02-18T23:28:49.891Z,1.10
2023-02-18T23:31:23.701Z,1.17
2023-02-18T23:33:55.259Z,1.23
2023-02-18T23:36:24.528Z,0.83
2023-02-18T23:38:59.428Z,1.33
2023-02-18T23:41:27.796Z,1.63
2023-02-18T23:43:55.162Z,2.10
2023-02-18T23:46:24.473Z,1.53
2023-02-18T23:48:51.824Z,2.13
2023-02-18T23:51:20.511Z,2.37
2023-02-18T23:53:47.772Z,2.30
2023-02-18T23:56:17.239Z,2.27
2023-02-18T23:58:46.205Z,2.03
